Takapuna, New Zealand
Current Conditions -  °F | °C
As of 9:00 AM on Saturday 20 Dec 2014 (Local Time) from NZAA Reporting Station
Overcast Overcast  
Wind Chill: 70°   Ceiling: 900
Heat Index: 70°   Visibility: 6mi
Dew Point: 66°   Wind: 14mph
Humidity: 88%   Direction: 40°NE
Pressure: 30"   Gusts: NA
Location:  36.79°S, 174.77°E
Report Text: NZAA 192100Z AUTO 04012KT 9999 OVC009/// 21/19 Q1016 NOSIG
Loading
Personal Weather Stations






























Interactive Weather Map New forecast layout! Learn more

10-Day Weather Forecast

Advertisements
Track Severe Weather on mobile